North Wichita, Kansas
Current Conditions -  °F | °C
As of 5:54 PM on Friday 24 Oct 2014 (Local Time) from KAAO Reporting Station
Clear Clear  
Wind Chill: 79°   Ceiling: Unl
Heat Index: 80°   Visibility: 10mi
Dew Point: 60°   Wind: 7mph
Humidity: 52%   Direction: 210°SSW
Pressure: 29.99"   Gusts: NA
Location:  37.7735°N, 97.3663°W
Report Text: KAAO 242254Z AUTO 21006KT 10SM CLR 26/16 A2999 RMK AO2 SLP147 T02610156 $
Loading
Personal Weather Stations






























Interactive Weather Map
Tropical Storm Tracking
New forecast layout! Learn more

10-Day Weather Forecast

Advertisements
Track Severe Weather on mobile